OPSK

Sukkur Airport

Mirpur Khas, Pakistan
TAF OPSK 231530Z 2318/2418 18007KT 4000 HZ NSC TEMPO 2400/2404 VRB03KT 2000 HZ NSC FM240700 21010KT 4000 HZ NSC
Issued Valid From Valid To
Apr-23 @ 15:30 UTC
(7 hours ago)
Apr-23 @ 18:00 UTC
(5 hours ago)
Apr-24 @ 18:00 UTC
(in 19 hours)
Apr-23 @ 18:00 to Apr-24 @ 07:00
TAF OPSK 231530Z 2318/2418 18007KT 4000 HZ NSC
Wind Visibility Clouds Conditions
180° at 7 knots 4,007 meters
  • No significant clouds
  • Haze
Temporary Apr-24 @ 00:00 to Apr-24 @ 04:00
TEMPO 2400/2404 VRB03KT 2000 HZ NSC
Wind Visibility Clouds Conditions
Variable at 3 knots 1,996 meters
  • No significant clouds
  • Haze
From Apr-24 @ 07:00 to Apr-24 @ 18:00
FM240700 21010KT 4000 HZ NSC
Wind Visibility Clouds Conditions
210° at 10 knots 4,007 meters
  • No significant clouds
  • Haze
TAF OPSK 231530Z 2318/2418 18007KT 4000 HZ NSC TEMPO 2400/2404 VRB03KT 2000 HZ NSC FM240700 21010KT 4000 HZ NSC
Issued Apr-23 @ 15:30 UTC
(7 hours ago)
Valid From Apr-23 @ 18:00 UTC
(5 hours ago)
Valid To Apr-24 @ 18:00 UTC
(in 19 hours)
Apr-23 @ 18:00 - Apr-24 @ 07:00
Wind Visibility
180° at 7 knots 4,007 meters
Clouds
  • No significant clouds
Conditions
  • Haze
Temporary Apr-24 @ 00:00 - Apr-24 @ 04:00
Wind Visibility
Variable at 3 knots 1,996 meters
Clouds
  • No significant clouds
Conditions
  • Haze
From Apr-24 @ 07:00 - Apr-24 @ 18:00
Wind Visibility
210° at 10 knots 4,007 meters
Clouds
  • No significant clouds
Conditions
  • Haze